Time;durP1;ratioP1;P1;durP2;ratioP2;P2;SDS_P1;SDS_P2;PMS_P1;PMS_P2;Temp;Humidity;BMP_temperature;BMP_pressure;BME280_temperature;BME280_humidity;BME280_pressure;Samples;Min_cycle;Max_cycle;Signal;HPM_P1;HPM_P2
2021/04/26 00:01:28;;;;;;;14.28;5.92;;;;;;;1.25;49.76;101244.09;1740601;81;21111;-70
2021/04/26 00:03:54;;;;;;;13.70;6.50;;;;;;;1.20;49.82;101237.78;1724124;81;21166;-70
2021/04/26 00:06:21;;;;;;;12.43;5.97;;;;;;;1.18;49.86;101246.23;1723857;81;21555;-70
2021/04/26 00:08:47;;;;;;;22.62;7.47;;;;;;;1.15;49.95;101241.17;1710645;81;22110;-70
2021/04/26 00:11:14;;;;;;;13.05;5.67;;;;;;;1.12;50.02;101236.09;1753685;81;21162;-70
2021/04/26 00:13:40;;;;;;;16.20;6.58;;;;;;;1.08;50.07;101235.89;1730533;81;21162;-70
2021/04/26 00:16:07;;;;;;;12.28;4.85;;;;;;;1.03;50.14;101235.77;1726566;83;21605;-70
2021/04/26 00:18:33;;;;;;;14.55;6.15;;;;;;;0.98;50.19;101229.02;1743609;81;21104;-70
2021/04/26 00:20:59;;;;;;;14.95;7.90;;;;;;;0.97;50.25;101226.47;1756384;81;21310;-70
2021/04/26 00:23:26;;;;;;;56.15;25.77;;;;;;;0.95;50.35;101234.92;1756067;81;21171;-70
2021/04/26 00:25:52;;;;;;;43.50;19.73;;;;;;;0.90;50.41;101238.27;1756922;81;21158;-70
2021/04/26 00:28:18;;;;;;;19.85;9.30;;;;;;;0.81;50.51;101233.55;1754077;81;21127;-70
2021/04/26 00:30:45;;;;;;;16.70;6.72;;;;;;;0.72;50.62;101232.73;1738323;81;21173;-70
2021/04/26 00:33:11;;;;;;;13.88;7.10;;;;;;;0.58;50.74;101230.05;1726722;81;21248;-71
2021/04/26 00:35:37;;;;;;;12.43;5.78;;;;;;;0.51;50.88;101228.23;1726676;81;21661;-71
2021/04/26 00:38:03;;;;;;;17.40;6.45;;;;;;;0.45;50.99;101229.44;1726578;83;21189;-70
2021/04/26 00:40:29;;;;;;;18.05;7.03;;;;;;;0.33;51.12;101235.34;1726642;81;21169;-71
2021/04/26 00:42:56;;;;;;;22.27;7.37;;;;;;;0.31;51.27;101228.50;1735915;81;21649;-70
2021/04/26 00:45:24;;;;;;;17.87;6.35;;;;;;;0.28;51.40;101230.80;1736000;81;22357;-70
2021/04/26 00:47:51;;;;;;;18.35;7.40;;;;;;;0.24;51.51;101224.06;1726812;81;21181;-70
2021/04/26 00:50:24;;;;;;;20.37;6.92;;;;;;;0.19;51.60;101224.77;1725988;83;21188;-70
2021/04/26 00:52:51;;;;;;;18.40;6.78;;;;;;;0.10;51.76;101219.19;1725583;83;21201;-70
2021/04/26 00:55:20;;;;;;;27.95;9.75;;;;;;;0.03;51.89;101214.74;1726516;83;21514;-70
2021/04/26 00:57:46;;;;;;;23.57;9.67;;;;;;;0.00;52.03;101220.97;1727105;81;21232;-70
2021/04/26 01:00:15;;;;;;;26.15;9.65;;;;;;;-0.04;52.16;101216.00;1742640;81;21182;-70
2021/04/26 01:02:41;;;;;;;42.25;14.70;;;;;;;-0.06;52.30;101219.16;1740370;81;21123;-70
2021/04/26 01:05:11;;;;;;;68.12;22.15;;;;;;;-0.12;52.41;101216.86;1730936;81;21202;-70
2021/04/26 01:07:38;;;;;;;53.95;18.52;;;;;;;-0.16;52.56;101210.09;1732650;81;21183;-70
2021/04/26 01:10:07;;;;;;;61.00;19.77;;;;;;;-0.19;52.70;101214.19;1756724;81;22108;-70
2021/04/26 01:12:57;;;;;;;39.53;14.23;;;;;;;-0.23;52.84;101208.72;1755984;81;21224;-70
2021/04/26 01:15:41;;;;;;;40.12;15.08;;;;;;;-0.29;52.95;101204.67;1753721;80;21141;-70
2021/04/26 01:18:12;;;;;;;22.70;9.70;;;;;;;-0.38;53.12;101202.97;1749074;81;21665;-70
2021/04/26 01:21:31;;;;;;;32.53;11.57;;;;;;;-0.43;53.24;101202.39;1739431;81;21136;-70
2021/04/26 01:24:38;;;;;;;24.72;9.38;;;;;;;-0.51;53.40;101199.70;1751216;81;21264;-70
2021/04/26 01:27:44;;;;;;;23.70;10.50;;;;;;;-0.54;53.59;101201.18;1751806;81;21136;-70
2021/04/26 01:30:45;;;;;;;19.50;8.53;;;;;;;-0.54;53.73;101199.02;1751728;81;21123;-70
2021/04/26 01:33:16;;;;;;;25.02;7.83;;;;;;;-0.56;53.87;101199.08;1753032;81;21163;-70
2021/04/26 01:35:42;;;;;;;25.35;9.85;;;;;;;-0.62;53.95;101188.94;1726336;81;21226;-70
2021/04/26 01:38:19;;;;;;;38.05;15.78;;;;;;;-0.64;54.06;101198.66;1699884;81;21276;-70
2021/04/26 01:40:48;;;;;;;32.78;15.00;;;;;;;-0.67;54.17;101197.48;1753494;81;21154;-70
2021/04/26 01:43:18;;;;;;;32.53;13.58;;;;;;;-0.71;54.26;101194.66;1753721;81;21179;-70
2021/04/26 01:45:45;;;;;;;27.37;9.70;;;;;;;-0.79;54.35;101197.27;1751620;80;21474;-70
2021/04/26 01:48:11;;;;;;;22.48;8.73;;;;;;;-0.86;54.50;101194.13;1725961;81;21187;-70
2021/04/26 01:50:38;;;;;;;16.30;6.15;;;;;;;-0.95;54.62;101191.95;1751323;81;21531;-70
2021/04/26 01:53:04;;;;;;;21.23;7.42;;;;;;;-0.97;54.72;101199.05;1753558;81;21174;-70
2021/04/26 01:55:30;;;;;;;18.62;6.85;;;;;;;-0.99;54.82;101199.60;1749886;81;21165;-70
2021/04/26 01:57:57;;;;;;;22.52;8.43;;;;;;;-1.03;54.95;101195.44;1725445;81;21623;-70
2021/04/26 02:00:28;;;;;;;17.30;7.20;;;;;;;-1.07;55.04;101195.20;1726033;81;21154;-70
2021/04/26 02:02:55;;;;;;;19.02;7.17;;;;;;;-1.12;55.19;101194.12;1726151;81;21221;-71
2021/04/26 02:05:22;;;;;;;19.73;7.58;;;;;;;-1.13;55.30;101194.21;1751567;81;21540;-70
2021/04/26 02:07:49;;;;;;;17.60;7.53;;;;;;;-1.14;55.41;101191.20;1725867;81;21182;-70
2021/04/26 02:10:19;;;;;;;22.80;7.80;;;;;;;-1.14;55.53;101187.27;1753543;81;21128;-70
2021/04/26 02:12:46;;;;;;;21.00;7.72;;;;;;;-1.13;55.66;101187.22;1752439;81;21214;-70
2021/04/26 02:15:15;;;;;;;20.30;7.50;;;;;;;-1.09;55.76;101183.98;1756242;81;22111;-70
2021/04/26 02:17:42;;;;;;;;;;;;;;;-1.07;55.87;101184.73;1757991;81;22313;-70
2021/04/26 02:20:14;;;;;;;17.75;6.80;;;;;;;-1.04;55.97;101181.50;1757598;81;20275;-70
2021/04/26 02:22:41;;;;;;;23.07;9.85;;;;;;;-1.03;56.07;101182.36;1752010;81;21200;-70
2021/04/26 02:25:10;;;;;;;21.17;9.45;;;;;;;-0.97;56.14;101178.11;1736294;82;21830;-70
2021/04/26 02:27:37;;;;;;;31.42;9.60;;;;;;;-0.98;56.23;101176.41;1728861;81;21280;-70
2021/04/26 02:30:06;;;;;;;21.07;9.10;;;;;;;-1.02;56.34;101169.17;1716904;81;21149;-70
2021/04/26 02:33:03;;;;;;;22.40;7.95;;;;;;;-1.02;56.45;101173.55;1739771;81;21180;-70
2021/04/26 02:35:47;;;;;;;22.52;9.33;;;;;;;-1.03;56.53;101171.89;1708661;81;21154;-70
2021/04/26 02:38:16;;;;;;;22.58;8.55;;;;;;;-0.99;56.63;101163.41;1708245;82;21177;-70
2021/04/26 02:40:55;;;;;;;21.05;8.93;;;;;;;-1.02;56.71;101164.39;1708386;82;21269;-70
2021/04/26 02:43:21;;;;;;;22.77;8.05;;;;;;;-1.01;56.80;101164.79;1723520;82;21177;-70
2021/04/26 02:45:51;;;;;;;23.27;8.60;;;;;;;-1.00;56.89;101163.88;1715355;81;21181;-70
2021/04/26 02:48:17;;;;;;;22.87;8.93;;;;;;;-1.01;56.95;101163.48;1742586;81;21180;-70
2021/04/26 02:50:44;;;;;;;25.43;9.05;;;;;;;-1.03;57.04;101156.19;1731806;82;21129;-70
2021/04/26 02:53:12;;;;;;;20.70;8.25;;;;;;;-1.07;57.12;101157.26;1758306;81;21418;-70
2021/04/26 02:55:40;;;;;;;25.80;8.95;;;;;;;-1.09;57.22;101157.32;1726872;83;21146;-70
2021/04/26 02:58:06;;;;;;;20.82;8.68;;;;;;;-1.12;57.29;101160.55;1750131;81;21201;-70
2021/04/26 03:00:32;;;;;;;25.37;8.83;;;;;;;-1.16;57.38;101154.63;1729084;81;21146;-70
2021/04/26 03:02:59;;;;;;;19.60;8.25;;;;;;;-1.19;57.45;101153.94;1746595;81;21169;-70
2021/04/26 03:05:25;;;;;;;21.48;8.08;;;;;;;-1.21;57.55;101151.87;1747630;81;21195;-70
2021/04/26 03:07:52;;;;;;;21.12;7.30;;;;;;;-1.25;57.57;101155.56;1747345;81;21172;-70
2021/04/26 03:10:18;;;;;;;21.12;7.75;;;;;;;-1.28;57.66;101155.72;1758863;81;21175;-70
2021/04/26 03:12:49;;;;;;;17.62;7.53;;;;;;;-1.31;57.75;101161.11;1729672;81;21159;-70
2021/04/26 03:15:20;;;;;;;19.77;7.35;;;;;;;-1.37;57.83;101160.11;1744286;81;21169;-70
2021/04/26 03:17:47;;;;;;;18.25;7.25;;;;;;;-1.44;57.92;101163.95;1744170;81;21197;-70
2021/04/26 03:20:15;;;;;;;15.28;6.97;;;;;;;-1.49;57.98;101158.08;1745592;81;21135;-70
2021/04/26 03:22:41;;;;;;;16.57;7.05;;;;;;;-1.49;58.06;101162.86;1744434;82;21148;-70
2021/04/26 03:25:09;;;;;;;24.52;7.17;;;;;;;-1.47;58.15;101158.84;1744075;81;21164;-70
2021/04/26 03:27:35;;;;;;;23.47;7.15;;;;;;;-1.47;58.24;101168.84;1745439;81;21149;-70
2021/04/26 03:30:03;;;;;;;18.87;6.92;;;;;;;-1.49;58.32;101163.31;1755703;81;21193;-70
2021/04/26 03:32:30;;;;;;;18.12;6.87;;;;;;;-1.48;58.41;101171.55;1757907;81;21600;-70
2021/04/26 03:34:56;;;;;;;15.72;6.97;;;;;;;-1.43;58.50;101170.84;1758111;81;21131;-70
2021/04/26 03:37:23;;;;;;;21.15;7.22;;;;;;;-1.41;58.58;101165.95;1759173;81;21162;-70
2021/04/26 03:39:49;;;;;;;19.00;6.95;;;;;;;-1.38;58.67;101155.33;1759158;81;21127;-70
2021/04/26 03:42:16;;;;;;;23.47;7.70;;;;;;;-1.34;58.74;101153.41;1756603;81;21162;-70
2021/04/26 03:44:48;;;;;;;25.97;8.85;;;;;;;-1.32;58.80;101154.17;1745817;81;21179;-71
2021/04/26 03:47:14;;;;;;;23.15;7.83;;;;;;;-1.28;58.91;101157.88;1744127;82;21149;-69
2021/04/26 03:49:41;;;;;;;29.70;10.65;;;;;;;-1.28;58.98;101158.33;1745166;81;21124;-69
2021/04/26 03:52:08;;;;;;;20.00;7.97;;;;;;;-1.29;59.07;101161.41;1744255;81;21177;-69
2021/04/26 03:54:34;;;;;;;23.57;8.28;;;;;;;-1.25;59.16;101157.72;1744273;81;21265;-69
2021/04/26 03:57:01;;;;;;;24.50;8.05;;;;;;;-1.22;59.25;101159.33;1750623;81;21159;-69
2021/04/26 03:59:27;;;;;;;30.17;9.13;;;;;;;-1.15;59.30;101160.72;1758097;81;21146;-69
2021/04/26 04:01:54;;;;;;;22.90;9.15;;;;;;;-1.08;59.36;101162.09;1757756;81;21171;-69
2021/04/26 04:04:21;;;;;;;20.80;8.73;;;;;;;-1.03;59.43;101162.73;1758877;81;21127;-69
2021/04/26 04:06:47;;;;;;;21.95;8.30;;;;;;;-0.97;59.49;101161.09;1757905;81;21926;-70
2021/04/26 04:09:14;;;;;;;31.57;9.55;;;;;;;-0.81;59.59;101156.75;1758788;81;21115;-70
2021/04/26 04:11:41;;;;;;;23.38;9.10;;;;;;;-0.20;59.87;101162.23;1757962;81;21512;-70
2021/04/26 04:14:07;;;;;;;23.00;8.65;;;;;;;0.71;59.97;101162.80;1761166;81;21189;-70
2021/04/26 04:16:34;;;;;;;23.00;8.00;;;;;;;1.68;59.92;101160.44;1764269;81;21107;-70
2021/04/26 04:19:00;;;;;;;16.97;7.80;;;;;;;2.45;59.74;101167.79;1763538;81;21203;-70
2021/04/26 04:21:27;;;;;;;20.27;8.13;;;;;;;3.18;59.57;101165.06;1735133;81;21585;-70
2021/04/26 04:23:53;;;;;;;20.17;8.65;;;;;;;3.99;59.41;101164.22;1749487;82;21187;-70
2021/04/26 04:26:19;;;;;;;21.82;8.98;;;;;;;4.75;59.19;101157.34;1749132;81;21151;-70
2021/04/26 04:28:45;;;;;;;20.40;9.65;;;;;;;5.23;58.69;101160.25;1750316;81;21137;-70
2021/04/26 04:31:12;;;;;;;16.82;8.85;;;;;;;5.64;58.33;101162.81;1749655;81;21248;-70
2021/04/26 04:33:38;;;;;;;15.08;8.43;;;;;;;6.12;58.07;101164.29;1749220;81;21140;-70
2021/04/26 04:36:06;;;;;;;16.27;7.87;;;;;;;6.63;57.59;101171.61;1749652;81;21180;-70
2021/04/26 04:38:34;;;;;;;18.32;7.65;;;;;;;7.08;57.12;101173.10;1761557;81;21603;-71
2021/04/26 04:41:00;;;;;;;20.82;7.92;;;;;;;7.51;56.60;101171.16;1753133;81;21613;-70
2021/04/26 04:43:26;;;;;;;15.55;7.67;;;;;;;8.01;56.01;101175.23;1756040;81;22145;-71
2021/04/26 04:45:52;;;;;;;19.75;7.25;;;;;;;7.67;54.90;101171.18;1739469;81;21163;-70
2021/04/26 04:48:19;;;;;;;13.78;7.62;;;;;;;7.38;54.61;101174.52;1734064;82;21608;-70
2021/04/26 04:50:45;;;;;;;20.35;7.62;;;;;;;8.01;54.79;101169.44;1746504;81;22064;-71
2021/04/26 04:53:12;;;;;;;16.07;6.67;;;;;;;8.79;54.39;101173.12;1749759;81;21125;-71
2021/04/26 04:55:38;;;;;;;15.18;6.97;;;;;;;9.23;53.68;101172.52;1750397;81;21951;-71
2021/04/26 04:58:04;;;;;;;18.00;7.33;;;;;;;9.60;52.93;101167.77;1749465;81;21474;-70
2021/04/26 05:00:31;;;;;;;13.70;7.00;;;;;;;9.46;51.57;101171.20;1760034;81;21159;-71
2021/04/26 05:02:57;;;;;;;15.70;7.78;;;;;;;9.02;50.81;101174.02;1763123;81;22382;-71
2021/04/26 05:05:24;;;;;;;13.03;6.90;;;;;;;8.18;50.74;101173.26;1761180;81;21152;-71
2021/04/26 05:07:50;;;;;;;14.10;7.25;;;;;;;7.60;50.92;101172.17;1749337;81;21581;-71
2021/04/26 05:10:19;;;;;;;13.32;7.72;;;;;;;7.38;51.07;101169.20;1749612;81;21645;-71
2021/04/26 05:12:45;;;;;;;23.05;10.40;;;;;;;7.16;51.10;101169.81;1733946;82;21628;-71
2021/04/26 05:15:14;;;;;;;17.87;11.20;;;;;;;7.10;51.10;101173.83;1696497;84;21195;-71
2021/04/26 05:17:42;;;;;;;22.98;12.00;;;;;;;7.14;51.04;101167.30;1729778;82;21157;-70
2021/04/26 05:20:10;;;;;;;14.78;8.53;;;;;;;7.26;50.90;101171.56;1732640;80;21185;-71
2021/04/26 05:22:38;;;;;;;15.83;9.55;;;;;;;7.25;50.76;101173.84;1712180;82;21650;-71
2021/04/26 05:25:08;;;;;;;20.27;9.10;;;;;;;7.12;50.57;101170.55;1710541;82;21563;-71
2021/04/26 05:27:36;;;;;;;17.42;9.08;;;;;;;7.07;50.45;101166.14;1745037;82;21142;-71
2021/04/26 05:30:04;;;;;;;19.05;8.75;;;;;;;7.31;50.37;101166.72;1746250;82;21154;-71
2021/04/26 05:32:31;;;;;;;18.12;7.40;;;;;;;7.44;50.23;101164.69;1741165;81;21177;-71
2021/04/26 05:34:57;;;;;;;15.15;8.45;;;;;;;7.50;50.04;101169.47;1743619;82;21618;-71
2021/04/26 05:37:23;;;;;;;19.67;9.08;;;;;;;7.60;49.90;101163.39;1739907;82;21120;-71
2021/04/26 05:39:49;;;;;;;21.40;9.25;;;;;;;7.62;49.66;101164.09;1744051;81;21161;-71
2021/04/26 05:42:16;;;;;;;20.15;10.80;;;;;;;7.71;49.53;101165.45;1728537;83;21156;-71
2021/04/26 05:44:42;;;;;;;27.22;11.65;;;;;;;7.98;49.31;101162.23;1728492;83;21208;-71
2021/04/26 05:47:09;;;;;;;19.75;9.35;;;;;;;7.98;49.12;101170.19;1727954;83;21177;-71
2021/04/26 05:49:35;;;;;;;19.02;8.25;;;;;;;7.87;48.94;101164.98;1728534;83;21356;-71
2021/04/26 05:52:01;;;;;;;21.23;9.38;;;;;;;7.85;48.81;101168.23;1728261;83;21122;-71
2021/04/26 05:54:28;;;;;;;21.33;8.95;;;;;;;7.85;48.61;101162.44;1718919;83;21192;-71
2021/04/26 05:56:55;;;;;;;25.32;10.00;;;;;;;8.02;48.50;101162.31;1699102;84;21301;-71
2021/04/26 05:59:21;;;;;;;29.90;11.93;;;;;;;8.09;48.29;101166.11;1709754;83;21185;-71
2021/04/26 06:01:47;;;;;;;21.48;10.32;;;;;;;8.19;48.10;101168.30;1717473;83;21195;-71
2021/04/26 06:04:14;;;;;;;30.75;10.75;;;;;;;8.31;47.94;101165.05;1708595;84;21786;-72
2021/04/26 06:06:40;;;;;;;15.45;5.80;;;;;;;8.47;47.81;101168.05;1708772;84;21160;-71
2021/04/26 06:09:06;;;;;;;10.25;3.65;;;;;;;8.53;47.64;101168.33;1720524;83;21213;-71
2021/04/26 06:11:32;;;;;;;10.20;3.58;;;;;;;8.57;47.41;101168.89;1721536;82;21618;-72
2021/04/26 06:13:59;;;;;;;13.05;4.58;;;;;;;8.53;47.24;101173.65;1746001;82;21160;-72
2021/04/26 06:16:25;;;;;;;19.25;7.42;;;;;;;8.68;47.08;101173.25;1741049;82;21145;-72
2021/04/26 06:18:51;;;;;;;12.43;4.50;;;;;;;8.78;46.94;101174.09;1735261;81;21104;-72
2021/04/26 06:21:17;;;;;;;8.33;3.70;;;;;;;8.85;46.77;101173.88;1756042;81;21180;-72
2021/04/26 06:23:44;;;;;;;11.45;4.30;;;;;;;8.90;46.59;101171.66;1755888;81;21127;-72
2021/04/26 06:26:10;;;;;;;8.50;3.80;;;;;;;8.81;46.43;101173.80;1724064;83;21168;-72
2021/04/26 06:28:37;;;;;;;10.50;4.05;;;;;;;8.69;46.29;101162.97;1730273;81;21170;-72
2021/04/26 06:31:04;;;;;;;11.48;4.53;;;;;;;8.53;46.14;101167.48;1723824;83;21166;-72
2021/04/26 06:33:30;;;;;;;12.63;5.12;;;;;;;8.49;46.05;101165.59;1745637;81;21569;-72
2021/04/26 06:35:57;;;;;;;19.32;7.50;;;;;;;8.55;45.94;101162.05;1757401;81;21159;-72
2021/04/26 06:38:23;;;;;;;11.28;4.72;;;;;;;8.49;45.79;101164.27;1689904;84;21136;-72
2021/04/26 06:40:50;;;;;;;10.05;4.53;;;;;;;8.50;45.69;101161.97;1693170;84;21565;-72
2021/04/26 06:43:16;;;;;;;9.03;4.17;;;;;;;8.60;45.57;101157.13;1688353;85;21173;-70
2021/04/26 06:45:43;;;;;;;7.83;4.30;;;;;;;8.74;45.50;101159.38;1703822;83;21208;-70
2021/04/26 06:48:14;;;;;;;16.90;5.67;;;;;;;8.66;45.42;101156.57;1725876;81;21160;-70
2021/04/26 06:50:40;;;;;;;10.50;5.80;;;;;;;8.82;45.40;101154.22;1710918;80;21152;-70
2021/04/26 06:53:07;;;;;;;13.03;4.90;;;;;;;8.93;45.22;101155.41;1782609;80;21993;-70
2021/04/26 06:55:33;;;;;;;14.73;4.83;;;;;;;8.96;45.12;101160.45;1782752;80;21155;-70
2021/04/26 06:57:59;;;;;;;11.83;5.17;;;;;;;9.01;45.01;101151.53;1782799;80;21208;-70
2021/04/26 07:00:27;;;;;;;11.28;5.37;;;;;;;9.01;45.01;101148.87;1782478;80;21167;-70
2021/04/26 07:02:54;;;;;;;7.58;3.70;;;;;;;9.04;44.96;101154.75;1762126;80;21124;-71
2021/04/26 07:05:21;;;;;;;13.90;5.20;;;;;;;9.03;44.85;101149.59;1724404;83;21180;-72
2021/04/26 07:07:47;;;;;;;14.60;4.55;;;;;;;9.01;44.81;101148.87;1731076;81;21150;-71
2021/04/26 07:10:14;;;;;;;11.95;3.80;;;;;;;8.97;44.76;101142.99;1733777;80;22209;-71
2021/04/26 07:12:40;;;;;;;7.50;4.05;;;;;;;9.08;44.87;101141.19;1695996;83;21192;-71
2021/04/26 07:15:09;;;;;;;12.15;3.67;;;;;;;9.22;44.89;101140.23;1728393;81;21168;-70
2021/04/26 07:17:35;;;;;;;14.68;6.12;;;;;;;9.25;44.78;101143.13;1736820;81;21163;-71
2021/04/26 07:20:06;;;;;;;20.12;9.88;;;;;;;9.19;44.77;101145.00;1757540;80;21155;-71
2021/04/26 07:22:33;;;;;;;24.40;9.40;;;;;;;9.32;44.77;101135.72;1757346;81;22180;-71
2021/04/26 07:25:00;;;;;;;12.10;4.47;;;;;;;9.33;44.66;101140.07;1726772;81;21246;-71
2021/04/26 07:27:26;;;;;;;8.35;3.70;;;;;;;9.24;44.60;101132.96;1739202;81;21178;-71
2021/04/26 07:29:52;;;;;;;9.43;4.28;;;;;;;9.38;44.65;101136.50;1741040;82;21189;-71
2021/04/26 07:32:19;;;;;;;7.37;3.17;;;;;;;9.31;44.58;101128.74;1784178;80;21147;-71
2021/04/26 07:34:45;;;;;;;15.28;6.22;;;;;;;9.35;44.60;101135.46;1710512;83;21558;-70
2021/04/26 07:37:11;;;;;;;18.75;6.33;;;;;;;9.36;44.55;101130.46;1752721;81;21231;-71
2021/04/26 07:39:38;;;;;;;10.13;2.98;;;;;;;9.39;44.49;101126.70;1721545;81;21180;-70
2021/04/26 07:42:05;;;;;;;5.45;2.52;;;;;;;8.87;44.42;101122.70;1718325;83;21134;-71
2021/04/26 07:44:31;;;;;;;8.53;3.02;;;;;;;9.01;44.52;101128.92;1755845;81;21130;-71
2021/04/26 07:46:57;;;;;;;18.02;5.90;;;;;;;8.87;44.47;101126.69;1724310;83;21581;-70
2021/04/26 07:49:25;;;;;;;4.75;2.00;;;;;;;9.01;44.44;101126.26;1755856;81;21122;-71
2021/04/26 07:51:52;;;;;;;7.15;2.90;;;;;;;9.18;44.33;101122.90;1724404;83;21127;-71
2021/04/26 07:54:18;;;;;;;6.45;2.58;;;;;;;9.39;44.33;101115.53;1755999;81;21175;-71
2021/04/26 07:56:44;;;;;;;10.48;3.17;;;;;;;9.36;44.20;101118.48;1724087;83;21173;-70
2021/04/26 07:59:10;;;;;;;6.47;2.00;;;;;;;9.19;44.04;101117.06;1750546;81;21346;-71
2021/04/26 08:01:37;;;;;;;11.53;2.77;;;;;;;9.35;43.79;101115.50;1711543;83;21223;-71
2021/04/26 08:04:04;;;;;;;6.50;1.85;;;;;;;9.40;43.53;101107.90;1736634;82;21632;-71
2021/04/26 08:06:31;;;;;;;8.60;1.95;;;;;;;9.66;43.42;101102.77;1751597;81;21548;-71
2021/04/26 08:08:58;;;;;;;5.72;1.47;;;;;;;9.82;43.21;101106.95;1752803;81;21620;-71
2021/04/26 08:11:24;;;;;;;6.12;1.20;;;;;;;9.82;43.02;101106.11;1723930;83;21998;-72
2021/04/26 08:13:51;;;;;;;2.50;0.90;;;;;;;9.97;42.91;101100.64;1754788;80;21198;-71
2021/04/26 08:16:17;;;;;;;3.70;1.07;;;;;;;10.15;42.83;101102.05;1705267;83;21128;-72
2021/04/26 08:18:43;;;;;;;3.33;0.88;;;;;;;9.81;42.68;101097.80;1732659;82;21629;-72
2021/04/26 08:21:10;;;;;;;3.08;1.45;;;;;;;9.35;42.56;101102.19;1757018;81;21151;-71
2021/04/26 08:23:38;;;;;;;1.47;0.90;;;;;;;9.40;42.62;101098.58;1757035;81;21203;-71
2021/04/26 08:26:04;;;;;;;3.02;1.40;;;;;;;9.54;42.49;101094.61;1756997;81;21119;-71
2021/04/26 08:28:34;;;;;;;8.30;1.60;;;;;;;9.58;42.38;101099.98;1756967;81;21183;-71
2021/04/26 08:31:01;;;;;;;4.28;1.72;;;;;;;9.78;42.19;101092.77;1757329;81;21148;-72
2021/04/26 08:33:28;;;;;;;4.67;0.80;;;;;;;9.99;41.69;101097.36;1757109;81;21171;-72
2021/04/26 08:35:55;;;;;;;1.85;1.00;;;;;;;9.88;41.46;101096.22;1757051;81;21264;-72
2021/04/26 08:38:21;;;;;;;1.47;0.98;;;;;;;9.89;41.32;101097.87;1757074;81;21617;-72
2021/04/26 08:40:48;;;;;;;3.27;1.20;;;;;;;10.22;41.20;101093.30;1757011;81;21139;-72
2021/04/26 08:43:15;;;;;;;1.85;1.02;;;;;;;10.45;41.09;101093.20;1757182;81;21131;-72
2021/04/26 08:45:41;;;;;;;2.98;1.10;;;;;;;10.47;40.71;101093.90;1757226;81;21127;-72
2021/04/26 08:48:07;;;;;;;14.63;3.35;;;;;;;10.45;40.58;101090.53;1757001;81;21257;-72
2021/04/26 08:50:34;;;;;;;13.68;4.33;;;;;;;10.36;40.48;101094.12;1757210;81;21140;-72
2021/04/26 08:53:00;;;;;;;10.18;4.03;;;;;;;10.09;40.31;101101.29;1757058;81;21115;-72
2021/04/26 08:55:27;;;;;;;16.85;6.12;;;;;;;9.36;40.15;101103.84;1757105;80;21198;-73
2021/04/26 08:57:53;;;;;;;7.12;2.10;;;;;;;9.10;40.12;101102.80;1756934;80;21540;-72
2021/04/26 09:00:20;;;;;;;5.25;1.35;;;;;;;9.00;40.04;101097.52;1757011;80;21250;-72
2021/04/26 09:03:03;;;;;;;5.05;1.22;;;;;;;9.09;39.95;101094.95;1757039;81;21135;-72
2021/04/26 09:05:35;;;;;;;3.58;1.10;;;;;;;9.35;39.77;101096.86;1757065;81;21587;-72
2021/04/26 09:08:04;;;;;;;4.70;2.40;;;;;;;9.45;39.59;101090.17;1757231;81;21056;-73
2021/04/26 09:10:45;;;;;;;1.77;1.07;;;;;;;9.79;39.59;101091.27;1757024;81;21132;-72
2021/04/26 09:16:26;;;;;;;3.05;1.17;;;;;;;10.07;39.18;101086.77;1816064;77;22643;-72
2021/04/26 09:19:07;;;;;;;3.90;1.35;;;;;;;9.60;39.04;101083.88;1788275;79;21108;-72
2021/04/26 09:21:44;;;;;;;7.78;2.52;;;;;;;9.29;39.05;101089.44;1787907;80;21184;-72
2021/04/26 09:27:06;;;;;;;2.00;1.07;;;;;;;9.12;39.05;101092.84;1815972;77;22578;-72
2021/04/26 09:29:33;;;;;;;2.55;1.00;;;;;;;9.21;39.06;101095.15;1788279;79;21204;-72
2021/04/26 09:32:15;;;;;;;3.72;1.40;;;;;;;9.55;39.00;101086.97;1788263;80;22141;-72
2021/04/26 09:34:47;;;;;;;14.35;6.22;;;;;;;9.80;38.88;101085.45;1788315;79;21136;-72
2021/04/26 09:37:28;;;;;;;6.62;1.90;;;;;;;10.08;38.76;101086.28;1787923;80;21560;-72
2021/04/26 09:40:14;;;;;;;;;;;;;;;10.17;38.60;101083.58;1790802;80;21088;-72
2021/04/26 09:42:52;;;;;;;5.25;2.40;;;;;;;10.08;38.53;101087.13;1788365;80;20488;-72
2021/04/26 09:45:36;;;;;;;7.70;1.70;;;;;;;10.09;38.50;101082.14;1788257;80;21163;-72
2021/04/26 09:48:14;;;;;;;3.58;1.70;;;;;;;9.97;38.37;101079.33;1788052;80;21135;-72
2021/04/26 09:51:03;;;;;;;3.90;1.30;;;;;;;9.76;38.33;101081.41;1788396;80;21107;-72
2021/04/26 09:53:36;;;;;;;5.17;2.10;;;;;;;9.65;38.29;101075.78;1788048;80;21171;-71
2021/04/26 09:56:17;;;;;;;5.42;1.32;;;;;;;9.68;38.26;101071.48;1786578;80;21618;-71
2021/04/26 09:58:45;;;;;;;2.33;0.85;;;;;;;9.75;38.21;101071.24;1757252;80;21190;-71
2021/04/26 10:01:11;;;;;;;8.88;2.87;;;;;;;9.94;38.26;101071.64;1757091;81;21119;-72
2021/04/26 10:03:38;;;;;;;30.55;9.85;;;;;;;10.03;38.14;101073.39;1757053;81;21120;-72
2021/04/26 10:06:04;;;;;;;7.53;2.83;;;;;;;9.93;38.03;101064.63;1756890;80;21155;-72
2021/04/26 10:08:31;;;;;;;7.00;2.85;;;;;;;10.24;38.04;101063.33;1757206;81;21194;-71
2021/04/26 10:10:57;;;;;;;8.05;2.98;;;;;;;10.63;37.92;101065.67;1756986;81;21260;-71
2021/04/26 10:13:25;;;;;;;5.40;3.00;;;;;;;10.65;37.73;101059.71;1757012;81;21338;-71
2021/04/26 10:16:00;;;;;;;13.25;4.33;;;;;;;10.63;37.65;101061.67;1757084;81;21155;-71
2021/04/26 10:18:39;;;;;;;5.20;2.25;;;;;;;10.68;37.63;101060.73;1757040;81;21163;-71
2021/04/26 10:21:23;;;;;;;10.72;3.67;;;;;;;10.57;37.43;101055.14;1756651;81;21151;-71
2021/04/26 10:23:50;;;;;;;20.40;11.90;;;;;;;10.62;37.36;101054.69;1737971;81;21174;-71
2021/04/26 10:26:49;;;;;;;16.70;11.10;;;;;;;10.75;37.25;101056.45;1756788;81;21215;-71
2021/04/26 10:29:29;;;;;;;4.47;1.50;;;;;;;10.60;37.10;101050.83;1749152;81;21638;-71
2021/04/26 10:32:09;;;;;;;8.88;2.62;;;;;;;10.68;37.13;101051.39;1725114;83;21166;-71
2021/04/26 10:34:48;;;;;;;;;;;;;;;10.65;37.05;101053.05;1691071;84;21207;-71
2021/04/26 10:37:20;;;;;;;3.70;1.65;;;;;;;10.50;36.86;101048.25;1720138;83;21204;-71
2021/04/26 10:40:08;;;;;;;2.02;1.27;;;;;;;10.16;36.81;101037.10;1702919;83;21576;-71
2021/04/26 10:42:52;;;;;;;3.70;1.20;;;;;;;10.01;36.78;101035.41;1703942;83;21186;-72
2021/04/26 10:45:26;;;;;;;4.83;2.45;;;;;;;10.10;36.88;101038.49;1717118;83;21192;-72
2021/04/26 10:48:06;;;;;;;3.58;1.05;;;;;;;10.19;36.81;101038.13;1702976;84;21160;-72
2021/04/26 10:50:39;;;;;;;3.45;1.75;;;;;;;10.25;36.75;101038.35;1717648;82;26456;-73
2021/04/26 10:53:07;;;;;;;2.22;0.80;;;;;;;10.45;36.71;101028.36;1693575;84;21203;-72
2021/04/26 10:55:40;;;;;;;15.83;7.42;;;;;;;10.57;36.61;101027.63;1722736;81;21608;-72
2021/04/26 10:58:25;;;;;;;8.55;4.42;;;;;;;10.85;36.55;101015.84;1722413;83;21167;-72
2021/04/26 11:00:51;;;;;;;4.60;1.00;;;;;;;10.76;36.35;101018.12;1693695;84;22496;-72
2021/04/26 11:03:26;;;;;;;2.10;0.72;;;;;;;10.58;36.25;101017.31;1725550;83;21888;-72
2021/04/26 11:05:53;;;;;;;6.47;2.00;;;;;;;10.39;36.17;101013.82;1722634;83;21155;-72
2021/04/26 11:08:50;;;;;;;3.70;1.32;;;;;;;10.32;36.09;101021.25;1693545;84;21132;-72
2021/04/26 11:14:02;;;;;;;8.45;3.35;;;;;;;10.41;35.99;101003.83;1807609;77;22741;-70
2021/04/26 11:16:31;;;;;;;3.55;1.77;;;;;;;10.28;35.84;101011.39;1765639;79;21619;-70
2021/04/26 11:19:11;;;;;;;14.47;1.95;;;;;;;10.27;35.81;101003.56;1765199;80;21195;-72
2021/04/26 11:21:49;;;;;;;3.10;1.17;;;;;;;10.25;35.71;101007.70;1786245;79;21191;-71
2021/04/26 11:24:30;;;;;;;5.00;1.40;;;;;;;10.33;35.71;101003.78;1787211;80;21197;-72
2021/04/26 11:27:15;;;;;;;3.80;1.00;;;;;;;10.44;35.65;100998.21;1776185;80;21142;-72
2021/04/26 11:29:50;;;;;;;6.53;1.67;;;;;;;10.39;35.59;101004.48;1757634;80;21100;-72
2021/04/26 11:32:17;;;;;;;4.00;1.17;;;;;;;10.13;35.58;100991.58;1757879;80;21198;-72
2021/04/26 11:35:01;;;;;;;6.85;1.90;;;;;;;9.93;35.62;100994.02;1780746;80;21139;-72
2021/04/26 11:37:36;;;;;;;6.35;1.95;;;;;;;9.89;35.65;100991.31;1740958;80;21696;-71
2021/04/26 11:40:19;;;;;;;6.40;2.10;;;;;;;9.97;35.66;100987.41;1738808;82;21963;-72
2021/04/26 11:43:07;;;;;;;5.62;1.40;;;;;;;10.12;35.66;100983.72;1810673;77;23406;-72
2021/04/26 11:45:35;;;;;;;5.20;1.85;;;;;;;10.06;35.51;100975.86;1797039;79;21151;-73